Time;durP1;ratioP1;P1;durP2;ratioP2;P2;SDS_P1;SDS_P2;PMS_P1;PMS_P2;Temp;Humidity;BMP_temperature;BMP_pressure;BME280_temperature;BME280_humidity;BME280_pressure;Samples;Min_cycle;Max_cycle;Signal;HPM_P1;HPM_P2
2024/03/27 00:01:50;;;;;;;1.42;0.93;;;21.50;56.20;;;;;;4951895;28;87755;-60
2024/03/27 00:04:17;;;;;;;1.48;0.70;;;21.50;56.20;;;;;;4951539;28;87607;-59
2024/03/27 00:06:42;;;;;;;1.77;1.10;;;21.50;56.10;;;;;;4952628;28;88654;-57
2024/03/27 00:09:13;;;;;;;2.75;0.80;;;21.50;56.20;;;;;;4951164;28;88483;-59
2024/03/27 00:11:39;;;;;;;1.45;0.70;;;21.40;56.30;;;;;;4953432;28;87791;-60
2024/03/27 00:14:05;;;;;;;0.85;0.70;;;21.50;56.30;;;;;;4953207;28;86973;-60
2024/03/27 00:16:32;;;;;;;1.48;1.00;;;21.50;56.10;;;;;;4950011;28;90896;-59
2024/03/27 00:18:58;;;;;;;1.20;0.77;;;21.50;56.10;;;;;;4951679;28;89194;-59
2024/03/27 00:21:24;;;;;;;2.03;1.10;;;21.50;56.20;;;;;;4953626;28;88043;-59
2024/03/27 00:23:50;;;;;;;1.02;0.60;;;21.50;56.10;;;;;;4951384;28;87925;-59
2024/03/27 00:26:17;;;;;;;1.65;0.80;;;21.50;56.10;;;;;;4952546;28;87700;-60
2024/03/27 00:28:43;;;;;;;2.42;1.05;;;21.40;56.10;;;;;;4948678;28;87797;-58
2024/03/27 00:31:09;;;;;;;1.92;1.00;;;21.40;56.00;;;;;;4950282;28;87707;-60
2024/03/27 00:33:35;;;;;;;2.17;1.13;;;21.40;56.10;;;;;;4953044;28;87744;-59
2024/03/27 00:36:01;;;;;;;1.77;1.17;;;21.40;56.10;;;;;;4948578;28;88981;-60
2024/03/27 00:38:29;;;;;;;1.20;0.73;;;21.40;56.10;;;;;;4955193;28;88896;-59
2024/03/27 00:40:54;;;;;;;2.83;1.45;;;21.40;56.10;;;;;;4969857;28;87542;-59
2024/03/27 00:43:22;;;;;;;1.15;0.70;;;21.40;56.20;;;;;;4970899;28;87364;-59
2024/03/27 00:45:48;;;;;;;1.02;0.93;;;21.40;56.10;;;;;;4969067;28;89004;-58
2024/03/27 00:51:37;;;;;;;3.15;0.90;;;21.40;56.10;;;;;;4948299;28;87585;-59
2024/03/27 00:54:05;;;;;;;2.33;0.70;;;21.40;56.10;;;;;;4950718;28;89573;-60
2024/03/27 00:56:31;;;;;;;0.90;0.70;;;21.40;56.20;;;;;;4948560;28;88796;-60
2024/03/27 00:58:57;;;;;;;1.23;0.73;;;21.30;56.10;;;;;;4948205;28;87954;-59
2024/03/27 01:01:24;;;;;;;2.47;1.00;;;21.30;56.20;;;;;;4951423;28;88144;-59
2024/03/27 01:03:49;;;;;;;1.02;0.63;;;21.30;56.20;;;;;;4953103;28;86908;-59
2024/03/27 01:06:15;;;;;;;1.73;0.80;;;21.30;56.10;;;;;;4951492;28;88147;-60
2024/03/27 01:08:41;;;;;;;1.40;0.70;;;21.30;56.00;;;;;;4950782;28;87253;-60
2024/03/27 01:11:08;;;;;;;2.60;0.70;;;21.30;56.20;;;;;;4948638;28;88621;-58
2024/03/27 01:13:34;;;;;;;2.45;1.15;;;21.30;55.90;;;;;;4948381;28;87578;-59
2024/03/27 01:16:00;;;;;;;1.80;1.17;;;21.30;56.10;;;;;;4948667;28;88943;-59
2024/03/27 01:18:26;;;;;;;1.63;0.90;;;21.30;56.10;;;;;;4951553;28;88663;-60
2024/03/27 01:20:53;;;;;;;1.33;1.08;;;21.30;56.10;;;;;;4952380;28;87168;-60
2024/03/27 01:23:18;;;;;;;1.85;0.93;;;21.30;56.20;;;;;;4950244;28;87639;-60
2024/03/27 01:29:06;;;;;;;1.00;0.70;;;21.30;56.10;;;;;;4948218;28;86858;-59
2024/03/27 01:31:32;;;;;;;1.88;0.90;;;21.30;56.10;;;;;;4950137;28;87504;-59
2024/03/27 01:33:59;;;;;;;1.38;0.73;;;21.30;56.00;;;;;;4951021;28;87267;-60
2024/03/27 01:36:25;;;;;;;1.30;0.73;;;21.20;56.10;;;;;;4964085;28;89908;-59
2024/03/27 01:38:51;;;;;;;4.32;1.02;;;21.20;56.00;;;;;;4969036;28;88783;-60
2024/03/27 01:41:16;;;;;;;1.67;0.60;;;21.20;55.90;;;;;;4968562;28;87075;-60
2024/03/27 01:43:43;;;;;;;0.90;0.60;;;21.20;55.90;;;;;;4963298;28;88128;-60
2024/03/27 01:46:11;;;;;;;1.60;0.90;;;21.20;56.00;;;;;;4962130;28;87609;-60
2024/03/27 01:48:38;;;;;;;2.15;1.23;;;21.20;56.00;;;;;;4952705;28;88692;-60
2024/03/27 01:51:06;;;;;;;1.60;1.10;;;21.20;56.00;;;;;;4951748;28;87476;-59
2024/03/27 01:53:33;;;;;;;1.57;0.90;;;21.20;55.90;;;;;;4952110;28;86859;-58
2024/03/27 01:55:59;;;;;;;2.33;0.70;;;21.20;56.00;;;;;;4951119;28;89058;-59
2024/03/27 01:58:24;;;;;;;1.15;0.75;;;21.20;56.00;;;;;;4950698;28;87276;-58
2024/03/27 02:00:51;;;;;;;2.08;0.90;;;21.20;56.00;;;;;;4949761;28;88477;-60
2024/03/27 02:03:17;;;;;;;2.65;1.20;;;21.20;55.90;;;;;;4950575;28;87314;-59
2024/03/27 02:05:44;;;;;;;1.35;0.90;;;21.20;55.80;;;;;;4950838;28;87990;-59
2024/03/27 02:08:10;;;;;;;3.05;1.08;;;21.20;55.90;;;;;;4947188;28;87723;-59
2024/03/27 02:10:36;;;;;;;1.00;0.80;;;21.20;55.80;;;;;;4949780;28;87410;-59
2024/03/27 02:13:03;;;;;;;0.85;0.60;;;21.20;56.00;;;;;;4949242;28;87701;-58
2024/03/27 02:15:29;;;;;;;1.40;0.65;;;21.20;56.00;;;;;;4949987;28;88848;-59
2024/03/27 02:17:55;;;;;;;2.13;0.60;;;21.20;56.00;;;;;;4950728;28;86964;-59
2024/03/27 02:20:21;;;;;;;0.80;0.70;;;21.20;56.00;;;;;;4942350;28;88649;-60
2024/03/27 02:22:48;;;;;;;0.80;0.70;;;21.20;56.00;;;;;;4967789;28;87452;-59
2024/03/27 02:25:31;;;;;;;0.90;0.50;;;21.10;56.00;;;;;;4966684;28;89130;-59
2024/03/27 02:27:57;;;;;;;1.25;0.60;;;21.10;55.90;;;;;;4969375;28;89201;-60
2024/03/27 02:30:24;;;;;;;0.80;0.73;;;21.10;55.90;;;;;;4968319;28;87663;-59
2024/03/27 02:32:50;;;;;;;2.25;0.63;;;21.10;56.00;;;;;;4959748;28;87784;-57
2024/03/27 02:35:19;;;;;;;1.30;0.68;;;21.10;55.90;;;;;;4967857;28;87528;-59
2024/03/27 02:37:45;;;;;;;1.20;0.80;;;21.10;55.90;;;;;;4964865;28;87857;-58
2024/03/27 02:40:12;;;;;;;1.38;0.88;;;21.10;55.90;;;;;;4967032;28;87038;-59
2024/03/27 02:42:38;;;;;;;1.23;0.95;;;21.10;55.90;;;;;;4959273;28;88016;-58
2024/03/27 02:45:04;;;;;;;1.00;0.70;;;21.10;56.10;;;;;;4948499;28;88615;-59
2024/03/27 02:47:31;;;;;;;1.25;0.85;;;21.10;56.00;;;;;;4947267;28;88687;-59
2024/03/27 02:49:57;;;;;;;1.05;0.80;;;21.10;56.10;;;;;;4946734;28;88731;-59
2024/03/27 02:52:24;;;;;;;2.78;0.82;;;21.10;56.00;;;;;;4946860;28;87330;-59
2024/03/27 02:54:50;;;;;;;1.02;0.93;;;21.10;56.00;;;;;;4949390;28;90721;-59
2024/03/27 02:57:16;;;;;;;0.68;0.60;;;21.00;55.90;;;;;;4942779;28;89825;-59
2024/03/27 02:59:43;;;;;;;1.88;0.93;;;21.00;55.90;;;;;;4946460;28;87560;-59
2024/03/27 03:02:09;;;;;;;0.70;0.52;;;21.10;55.90;;;;;;4946801;28;87469;-60
2024/03/27 03:04:34;;;;;;;0.98;0.70;;;21.00;55.90;;;;;;4948998;28;87381;-57
2024/03/27 03:07:00;;;;;;;0.90;0.60;;;21.00;55.90;;;;;;4952223;28;86417;-58
2024/03/27 03:09:26;;;;;;;1.52;1.00;;;21.00;56.00;;;;;;4951940;28;87291;-59
2024/03/27 03:11:53;;;;;;;1.38;0.77;;;21.00;55.90;;;;;;4950258;28;87553;-59
2024/03/27 03:14:20;;;;;;;1.73;1.15;;;21.00;55.80;;;;;;4948047;28;88792;-58
2024/03/27 03:16:46;;;;;;;1.08;0.60;;;21.00;55.90;;;;;;4947475;28;89575;-60
2024/03/27 03:19:12;;;;;;;1.17;0.77;;;21.00;55.90;;;;;;4948233;28;87524;-59
2024/03/27 03:21:38;;;;;;;1.00;0.70;;;21.00;55.90;;;;;;4949665;28;87838;-59
2024/03/27 03:24:04;;;;;;;1.52;0.88;;;21.00;55.80;;;;;;4947276;28;88066;-58
2024/03/27 03:26:29;;;;;;;0.77;0.68;;;21.00;55.90;;;;;;4942661;28;88316;-57
2024/03/27 03:28:55;;;;;;;3.72;1.00;;;21.00;56.00;;;;;;4966337;28;87519;-60
2024/03/27 03:31:22;;;;;;;1.70;0.68;;;20.90;55.80;;;;;;4965047;28;87946;-59
2024/03/27 03:33:48;;;;;;;0.95;0.60;;;21.00;55.80;;;;;;4967348;28;88903;-58
2024/03/27 03:36:14;;;;;;;0.90;0.60;;;20.90;55.70;;;;;;4968381;28;87794;-60
2024/03/27 03:38:40;;;;;;;1.33;0.85;;;20.90;55.80;;;;;;4957860;28;88358;-59
2024/03/27 03:41:10;;;;;;;0.68;0.68;;;21.00;55.60;;;;;;4947213;28;88246;-58
2024/03/27 03:43:36;;;;;;;1.20;0.50;;;20.90;55.70;;;;;;4947481;28;88031;-58
2024/03/27 03:46:02;;;;;;;1.60;0.70;;;21.00;55.60;;;;;;4948210;28;87699;-58
2024/03/27 03:48:28;;;;;;;0.98;0.43;;;20.90;55.70;;;;;;4932343;28;87410;-57
2024/03/27 03:50:54;;;;;;;0.95;0.75;;;20.90;55.50;;;;;;4944479;28;87529;-59
2024/03/27 03:53:20;;;;;;;0.45;0.43;;;20.90;55.60;;;;;;4945724;28;87641;-59
2024/03/27 03:55:45;;;;;;;1.13;0.60;;;20.90;55.70;;;;;;4948130;28;87882;-59
2024/03/27 03:58:12;;;;;;;0.75;0.65;;;20.90;55.80;;;;;;4949928;28;86934;-58
2024/03/27 04:00:38;;;;;;;0.57;0.57;;;20.90;55.80;;;;;;4947747;28;87090;-57
2024/03/27 04:03:05;;;;;;;0.80;0.57;;;20.90;55.80;;;;;;4946933;28;89835;-59
2024/03/27 04:05:31;;;;;;;0.77;0.60;;;20.90;55.80;;;;;;4947031;28;89325;-59
2024/03/27 04:07:57;;;;;;;0.68;0.63;;;20.90;55.80;;;;;;4963349;28;87571;-59
2024/03/27 04:10:24;;;;;;;0.95;0.70;;;20.90;55.80;;;;;;4951394;28;87433;-59
2024/03/27 04:12:50;;;;;;;1.92;0.90;;;20.80;55.80;;;;;;4953530;28;88580;-60
2024/03/27 04:15:16;;;;;;;1.88;0.70;;;20.90;56.00;;;;;;4950407;28;87976;-60
2024/03/27 04:17:41;;;;;;;0.93;0.60;;;20.80;55.70;;;;;;4950065;28;87531;-59
2024/03/27 04:20:11;;;;;;;1.67;0.70;;;20.90;55.90;;;;;;4951347;28;86897;-59
2024/03/27 04:22:37;;;;;;;;;;;20.80;55.80;;;;;;4950462;28;87533;-58
2024/03/27 04:25:06;;;;;;;1.77;0.57;;;20.80;55.80;;;;;;4962140;28;87763;-60
2024/03/27 04:27:32;;;;;;;;;;;20.80;55.70;;;;;;4970785;28;88393;-57
2024/03/27 04:29:58;;;;;;;0.88;0.68;;;20.80;55.90;;;;;;4972204;28;87620;-58
2024/03/27 04:32:24;;;;;;;0.70;0.60;;;20.80;55.80;;;;;;4969964;28;88152;-58
2024/03/27 04:34:50;;;;;;;1.52;0.70;;;20.80;55.60;;;;;;4960567;28;87211;-58
2024/03/27 04:37:16;;;;;;;1.60;0.88;;;20.80;55.70;;;;;;4949546;28;87456;-60
2024/03/27 04:39:42;;;;;;;0.93;0.60;;;20.80;55.70;;;;;;4950437;28;87574;-59
2024/03/27 04:42:11;;;;;;;1.02;0.73;;;20.80;55.80;;;;;;4949204;28;88236;-57
2024/03/27 04:44:38;;;;;;;1.48;0.82;;;20.80;55.80;;;;;;4951505;28;86817;-58
2024/03/27 04:47:06;;;;;;;0.50;0.50;;;20.80;55.90;;;;;;4950442;28;87739;-58
2024/03/27 04:49:33;;;;;;;;;;;20.80;55.80;;;;;;4949283;28;87668;-58
2024/03/27 04:51:58;;;;;;;1.15;0.70;;;20.80;55.80;;;;;;4950610;28;89711;-60
2024/03/27 04:54:24;;;;;;;2.00;0.55;;;20.80;55.70;;;;;;4952518;28;88270;-59
2024/03/27 04:56:50;;;;;;;0.73;0.40;;;20.80;55.80;;;;;;4952357;28;87314;-61
2024/03/27 04:59:18;;;;;;;0.90;0.73;;;20.80;55.70;;;;;;4949235;28;87593;-58
2024/03/27 05:01:44;;;;;;;1.10;0.55;;;20.70;55.70;;;;;;4942458;28;88961;-59
2024/03/27 05:04:10;;;;;;;0.93;0.52;;;20.70;55.70;;;;;;4945829;28;88464;-59
2024/03/27 05:06:41;;;;;;;0.77;0.52;;;20.70;55.80;;;;;;4970943;28;87180;-59
2024/03/27 05:09:09;;;;;;;1.25;1.15;;;20.70;55.80;;;;;;4957939;28;86876;-58
2024/03/27 05:11:38;;;;;;;0.87;0.60;;;20.70;55.70;;;;;;4945470;28;88535;-60
2024/03/27 05:14:05;;;;;;;0.60;0.50;;;20.70;55.80;;;;;;4950592;28;88757;-60
2024/03/27 05:16:31;;;;;;;1.08;0.85;;;20.70;55.90;;;;;;4951458;28;89049;-60
2024/03/27 05:18:57;;;;;;;0.82;0.52;;;20.70;55.70;;;;;;4949456;28;88418;-58
2024/03/27 05:21:24;;;;;;;1.63;0.70;;;20.70;55.60;;;;;;4959839;28;94393;-58
2024/03/27 05:23:54;;;;;;;1.25;0.77;;;20.70;55.60;;;;;;4953056;28;88243;-58
2024/03/27 05:26:21;;;;;;;0.55;0.50;;;20.70;55.70;;;;;;4943179;28;87662;-60
2024/03/27 05:28:47;;;;;;;0.85;0.50;;;20.70;55.70;;;;;;4944505;28;87397;-58
2024/03/27 05:31:12;;;;;;;0.98;0.63;;;20.70;55.90;;;;;;4950325;28;88115;-59
2024/03/27 05:33:38;;;;;;;1.20;0.60;;;20.70;55.90;;;;;;4946646;28;87243;-56
2024/03/27 05:36:04;;;;;;;0.90;0.60;;;20.70;55.90;;;;;;4951673;28;86983;-60
2024/03/27 05:38:30;;;;;;;1.15;0.90;;;20.60;55.80;;;;;;4950106;28;87448;-60
2024/03/27 05:40:57;;;;;;;0.80;0.60;;;20.60;55.90;;;;;;4950117;28;89058;-59
2024/03/27 05:43:23;;;;;;;1.30;0.63;;;20.70;55.90;;;;;;4950278;28;89412;-59
2024/03/27 05:45:49;;;;;;;0.60;0.50;;;20.60;56.00;;;;;;4950219;28;87815;-59
2024/03/27 05:48:15;;;;;;;0.65;0.50;;;20.60;56.00;;;;;;4949610;28;87271;-59
2024/03/27 05:50:41;;;;;;;1.95;0.60;;;20.60;55.90;;;;;;4950340;28;88347;-60
2024/03/27 05:53:07;;;;;;;0.80;0.55;;;20.60;56.00;;;;;;4945559;28;87772;-60
2024/03/27 05:55:33;;;;;;;0.95;0.60;;;20.60;56.00;;;;;;4948926;28;87593;-59
2024/03/27 05:58:00;;;;;;;1.67;0.75;;;20.60;55.90;;;;;;4948155;28;86724;-59
2024/03/27 06:00:26;;;;;;;0.50;0.40;;;20.60;56.10;;;;;;4950035;28;88814;-59
2024/03/27 06:02:52;;;;;;;0.70;0.50;;;20.60;56.00;;;;;;4946734;28;88438;-60
2024/03/27 06:05:19;;;;;;;0.52;0.52;;;20.60;56.00;;;;;;4942507;28;88902;-59
2024/03/27 06:07:44;;;;;;;0.60;0.60;;;20.60;55.90;;;;;;4949648;28;87153;-59
2024/03/27 06:10:10;;;;;;;1.05;0.60;;;20.60;55.90;;;;;;4944677;28;88632;-59
2024/03/27 06:12:36;;;;;;;0.73;0.60;;;20.60;55.90;;;;;;4949366;28;87662;-59
2024/03/27 06:15:02;;;;;;;0.88;0.75;;;20.60;56.30;;;;;;4948073;28;87192;-60
2024/03/27 06:17:27;;;;;;;2.25;0.68;;;20.60;55.60;;;;;;4964137;28;87481;-58
2024/03/27 06:19:53;;;;;;;0.55;0.45;;;20.60;55.10;;;;;;4967081;28;88175;-58
2024/03/27 06:22:19;;;;;;;0.35;0.32;;;20.60;55.50;;;;;;4967075;28;88936;-59
2024/03/27 06:24:45;;;;;;;2.25;0.50;;;20.60;55.50;;;;;;4967495;28;87511;-59
2024/03/27 06:27:10;;;;;;;0.73;0.50;;;20.70;55.60;;;;;;4960014;28;87999;-62
2024/03/27 06:29:36;;;;;;;1.33;0.70;;;20.70;55.60;;;;;;4946873;28;89727;-59
2024/03/27 06:32:02;;;;;;;2.10;0.63;;;20.80;55.70;;;;;;4948520;28;89292;-58
2024/03/27 06:34:28;;;;;;;0.50;0.50;;;20.80;55.50;;;;;;4949672;28;87237;-59
2024/03/27 06:36:54;;;;;;;3.63;0.85;;;20.90;55.80;;;;;;4950416;28;87054;-60
2024/03/27 06:39:21;;;;;;;0.95;0.40;;;21.00;55.80;;;;;;4943656;28;88072;-59
2024/03/27 06:41:47;;;;;;;1.15;0.80;;;21.10;55.80;;;;;;4947136;28;88320;-57
2024/03/27 06:47:35;;;;;;;0.50;0.50;;;21.20;55.30;;;;;;4944632;28;86496;-60
2024/03/27 06:50:01;;;;;;;0.43;0.40;;;21.20;55.60;;;;;;4950436;28;86888;-58
2024/03/27 06:52:28;;;;;;;0.70;0.63;;;21.20;55.50;;;;;;4947438;28;88994;-58
2024/03/27 06:54:54;;;;;;;2.28;0.45;;;21.20;55.70;;;;;;4950185;28;88536;-59
2024/03/27 06:57:20;;;;;;;0.80;0.50;;;21.20;55.70;;;;;;4948724;28;87580;-59
2024/03/27 06:59:46;;;;;;;0.80;0.60;;;21.20;55.80;;;;;;4946313;28;87758;-59
2024/03/27 07:02:12;;;;;;;0.73;0.50;;;21.20;55.80;;;;;;4948884;28;87389;-58
2024/03/27 07:04:38;;;;;;;0.60;0.50;;;21.20;55.80;;;;;;4950940;28;87496;-58
2024/03/27 07:07:04;;;;;;;1.05;0.50;;;21.20;55.80;;;;;;4943489;28;88169;-58
2024/03/27 07:09:32;;;;;;;1.88;0.55;;;21.10;55.70;;;;;;4950758;28;88137;-59
2024/03/27 07:12:00;;;;;;;0.60;0.57;;;21.10;56.50;;;;;;4944574;28;87813;-57
2024/03/27 07:14:27;;;;;;;1.55;0.35;;;21.10;56.10;;;;;;4967130;28;87487;-58
2024/03/27 07:16:52;;;;;;;0.70;0.50;;;21.10;56.20;;;;;;4964076;28;88185;-59
2024/03/27 07:19:18;;;;;;;9.82;1.38;;;21.00;56.10;;;;;;4961377;28;89761;-60
2024/03/27 07:21:44;;;;;;;1.23;0.82;;;21.00;56.20;;;;;;4969004;28;88701;-59
2024/03/27 07:24:12;;;;;;;1.30;0.75;;;20.90;56.20;;;;;;4956942;28;86956;-59
2024/03/27 07:26:39;;;;;;;1.03;0.73;;;21.00;56.10;;;;;;4948125;28;87041;-60
2024/03/27 07:29:07;;;;;;;0.93;0.65;;;21.00;56.10;;;;;;4949627;28;88613;-59
2024/03/27 07:31:33;;;;;;;0.57;0.57;;;21.00;56.00;;;;;;4949143;28;87825;-57
2024/03/27 07:33:59;;;;;;;0.63;0.47;;;21.10;55.90;;;;;;4948334;28;87219;-60
2024/03/27 07:36:25;;;;;;;2.33;1.00;;;21.20;55.80;;;;;;4949467;28;86964;-59
2024/03/27 07:38:51;;;;;;;16.98;4.35;;;21.40;55.60;;;;;;4948072;28;87624;-60
2024/03/27 07:41:18;;;;;;;17.25;2.88;;;21.60;55.30;;;;;;4947771;28;87890;-60
2024/03/27 07:43:44;;;;;;;21.48;4.43;;;21.80;55.20;;;;;;4949748;28;88392;-59
2024/03/27 07:46:11;;;;;;;20.90;4.80;;;21.90;54.30;;;;;;4967791;28;87443;-59
2024/03/27 07:48:38;;;;;;;21.92;5.32;;;22.00;55.00;;;;;;4952790;28;88144;-60
2024/03/27 07:51:04;;;;;;;26.63;5.25;;;21.90;55.70;;;;;;4951257;28;87262;-59
2024/03/27 07:53:29;;;;;;;20.98;4.07;;;22.00;55.70;;;;;;4945017;28;87384;-58
2024/03/27 07:55:56;;;;;;;22.60;5.35;;;22.00;56.80;;;;;;4946864;28;87293;-60
2024/03/27 07:58:25;;;;;;;21.05;5.75;;;22.00;56.60;;;;;;4949552;28;88212;-60
2024/03/27 08:00:54;;;;;;;16.10;4.35;;;22.00;56.80;;;;;;4951908;28;88514;-59
2024/03/27 08:03:20;;;;;;;31.30;5.87;;;21.90;56.00;;;;;;4950769;28;87809;-59
2024/03/27 08:05:46;;;;;;;21.17;4.53;;;22.00;56.30;;;;;;4949386;28;88158;-59
2024/03/27 08:08:12;;;;;;;24.27;5.97;;;22.00;56.40;;;;;;4950971;28;89109;-60
2024/03/27 08:10:38;;;;;;;21.75;5.43;;;22.00;56.20;;;;;;4969312;28;89734;-59
2024/03/27 08:13:04;;;;;;;18.98;4.57;;;22.00;56.20;;;;;;4972222;28;87834;-59
2024/03/27 08:15:31;;;;;;;14.27;3.72;;;22.10;55.90;;;;;;4970299;28;87436;-59
2024/03/27 08:17:58;;;;;;;19.17;4.05;;;22.10;55.90;;;;;;4970626;28;87508;-63
2024/03/27 08:20:23;;;;;;;13.68;3.65;;;22.10;56.00;;;;;;4954074;28;89071;-59
2024/03/27 08:22:49;;;;;;;14.32;3.70;;;22.00;54.90;;;;;;4945296;28;87574;-59
2024/03/27 08:25:15;;;;;;;17.27;3.72;;;22.00;55.50;;;;;;4934195;28;87190;-59
2024/03/27 08:27:41;;;;;;;9.85;3.40;;;22.00;55.70;;;;;;4952912;28;88735;-57
2024/03/27 08:30:07;;;;;;;10.63;3.25;;;22.00;55.70;;;;;;4950996;28;87767;-59
2024/03/27 08:32:34;;;;;;;12.80;3.80;;;22.00;55.90;;;;;;4948374;28;87961;-59
2024/03/27 08:35:03;;;;;;;11.48;3.53;;;22.00;55.90;;;;;;4950033;28;87811;-60
2024/03/27 08:37:29;;;;;;;6.53;2.35;;;22.10;56.10;;;;;;4948588;28;88821;-59
2024/03/27 08:39:55;;;;;;;13.27;3.33;;;22.00;56.10;;;;;;4949175;28;87988;-60
2024/03/27 08:42:21;;;;;;;14.68;3.80;;;22.00;55.80;;;;;;4947282;28;87544;-59
2024/03/27 08:44:46;;;;;;;8.75;3.13;;;22.10;55.80;;;;;;4947827;28;87689;-59
2024/03/27 08:47:12;;;;;;;9.90;3.03;;;22.00;55.00;;;;;;4951808;28;88180;-59
2024/03/27 08:49:37;;;;;;;9.32;3.80;;;22.00;54.30;;;;;;4949054;28;89117;-59
2024/03/27 08:52:03;;;;;;;4.97;2.50;;;22.00;54.20;;;;;;4945821;28;86926;-64
2024/03/27 08:54:30;;;;;;;10.05;2.65;;;22.00;53.70;;;;;;4950671;28;87427;-66
2024/03/27 08:56:58;;;;;;;11.52;2.83;;;22.00;54.10;;;;;;4944961;28;90343;-60
2024/03/27 08:59:24;;;;;;;8.93;3.58;;;22.00;54.10;;;;;;4947807;28;88693;-59
2024/03/27 09:01:49;;;;;;;12.60;2.97;;;22.00;54.20;;;;;;4952460;28;87677;-59
2024/03/27 09:04:15;;;;;;;10.80;3.30;;;22.00;54.40;;;;;;4947419;28;87478;-58
2024/03/27 09:06:42;;;;;;;14.20;3.35;;;22.00;54.40;;;;;;4949822;28;88935;-58
2024/03/27 09:09:08;;;;;;;11.55;3.63;;;22.00;54.50;;;;;;4967547;28;88869;-57
2024/03/27 09:11:34;;;;;;;10.75;3.75;;;22.10;54.70;;;;;;4970740;28;87247;-61
2024/03/27 09:14:02;;;;;;;11.52;3.45;;;22.10;54.80;;;;;;4927452;28;89423;-61
2024/03/27 09:16:29;;;;;;;12.30;4.57;;;22.10;54.80;;;;;;4961624;28;88884;-59
2024/03/27 09:18:55;;;;;;;18.40;5.50;;;22.10;54.80;;;;;;4951679;28;87552;-59
2024/03/27 09:21:21;;;;;;;17.95;4.32;;;22.10;54.30;;;;;;4950585;28;87833;-65
2024/03/27 09:23:48;;;;;;;17.67;5.03;;;22.10;54.30;;;;;;4968477;28;87423;-65
2024/03/27 09:26:14;;;;;;;12.93;3.42;;;22.20;53.60;;;;;;4936126;28;88136;-64
2024/03/27 09:28:40;;;;;;;13.63;4.55;;;22.20;54.00;;;;;;4949951;28;88502;-60
2024/03/27 09:31:07;;;;;;;13.75;3.25;;;22.20;53.90;;;;;;4965159;28;88126;-60
2024/03/27 09:33:32;;;;;;;12.57;3.58;;;22.20;53.80;;;;;;4966854;28;88424;-61
2024/03/27 09:35:59;;;;;;;15.85;4.47;;;22.20;53.30;;;;;;4954160;28;88855;-60
2024/03/27 09:38:26;;;;;;;13.20;3.25;;;22.20;53.10;;;;;;4969440;28;87483;-60
2024/03/27 09:40:58;;;;;;;11.10;3.65;;;22.20;53.00;;;;;;4969088;28;86993;-59
2024/03/27 09:43:25;;;;;;;15.85;3.53;;;22.30;53.30;;;;;;4968252;28;88475;-60
2024/03/27 09:45:53;;;;;;;12.73;3.60;;;22.20;53.10;;;;;;4947604;28;90233;-60
2024/03/27 09:48:20;;;;;;;11.52;3.10;;;22.20;53.10;;;;;;4945649;28;89440;-60
2024/03/27 09:51:07;;;;;;;8.70;3.03;;;22.20;53.10;;;;;;4950888;28;87561;-59
2024/03/27 09:53:43;;;;;;;10.68;2.40;;;22.20;53.20;;;;;;4951731;28;87836;-60
2024/03/27 09:56:11;;;;;;;12.20;3.28;;;22.20;53.30;;;;;;4950974;28;88107;-60
2024/03/27 09:58:38;;;;;;;10.07;2.60;;;22.20;53.40;;;;;;4953185;28;87423;-60
2024/03/27 10:01:06;;;;;;;7.30;2.53;;;22.20;53.40;;;;;;4952175;28;88033;-58
2024/03/27 10:03:34;;;;;;;8.23;2.38;;;22.20;53.10;;;;;;4951263;28;86865;-59
2024/03/27 10:06:00;;;;;;;9.50;2.20;;;22.20;53.20;;;;;;4946033;28;88140;-59
2024/03/27 10:08:26;;;;;;;9.70;3.10;;;22.20;53.40;;;;;;4949382;28;87307;-60
2024/03/27 10:10:58;;;;;;;10.48;3.97;;;22.20;53.50;;;;;;4949680;28;87969;-59
2024/03/27 10:13:24;;;;;;;9.02;2.90;;;22.20;53.50;;;;;;4969313;28;88213;-59
2024/03/27 10:15:51;;;;;;;8.30;2.63;;;22.20;53.50;;;;;;4970102;28;88734;-60
2024/03/27 10:18:19;;;;;;;8.43;2.78;;;22.20;53.70;;;;;;4967393;28;87366;-58
2024/03/27 10:20:45;;;;;;;6.35;2.20;;;22.20;53.60;;;;;;4966437;28;87655;-60
2024/03/27 10:23:13;;;;;;;6.28;2.60;;;22.20;53.60;;;;;;4969402;28;87308;-58
2024/03/27 10:25:40;;;;;;;7.55;1.95;;;22.20;53.50;;;;;;4969037;28;88419;-59
2024/03/27 10:28:08;;;;;;;6.30;1.85;;;22.20;53.50;;;;;;4968396;28;86901;-60
2024/03/27 10:30:34;;;;;;;8.60;3.28;;;22.20;53.50;;;;;;4967773;28;87322;-59
2024/03/27 10:33:00;;;;;;;6.65;2.25;;;22.20;53.70;;;;;;4965391;28;87726;-64
2024/03/27 10:35:36;;;;;;;9.55;2.67;;;22.20;53.80;;;;;;4966069;28;89495;-59
2024/03/27 10:38:02;;;;;;;6.85;2.10;;;22.20;53.80;;;;;;4967238;28;89589;-60
2024/03/27 10:40:29;;;;;;;7.15;3.13;;;22.20;53.80;;;;;;4969601;28;87193;-60
2024/03/27 10:43:14;;;;;;;8.48;2.70;;;22.20;53.80;;;;;;4966762;28;88438;-60
2024/03/27 10:45:41;;;;;;;5.88;2.63;;;22.20;53.80;;;;;;4934779;28;89575;-59
2024/03/27 10:48:07;;;;;;;7.88;2.38;;;22.20;53.90;;;;;;4941838;28;88881;-59
2024/03/27 10:50:36;;;;;;;6.28;1.73;;;22.20;53.80;;;;;;4974846;28;86945;-57
2024/03/27 10:53:03;;;;;;;7.70;2.20;;;22.20;53.80;;;;;;4968279;28;86998;-59
2024/03/27 10:55:32;;;;;;;6.03;2.70;;;22.20;54.00;;;;;;4968724;28;88889;-59
2024/03/27 10:58:00;;;;;;;6.78;1.90;;;22.20;53.80;;;;;;4968441;28;88783;-59
2024/03/27 11:00:27;;;;;;;8.60;2.42;;;22.30;53.90;;;;;;4967360;28;89662;-60
2024/03/27 11:02:53;;;;;;;4.53;1.58;;;22.20;53.80;;;;;;4968125;28;87655;-60
2024/03/27 11:05:19;;;;;;;6.85;1.80;;;22.30;53.90;;;;;;4969590;28;88793;-59
2024/03/27 11:07:49;;;;;;;5.32;2.10;;;22.20;53.80;;;;;;4966641;28;91196;-59
2024/03/27 11:10:24;;;;;;;4.88;2.00;;;22.30;53.90;;;;;;4970722;28;87346;-59
2024/03/27 11:12:52;;;;;;;5.45;2.65;;;22.40;53.80;;;;;;4968456;28;87260;-61
2024/03/27 11:15:19;;;;;;;6.15;1.75;;;22.30;53.60;;;;;;4965654;28;88028;-60
2024/03/27 11:17:54;;;;;;;4.63;1.67;;;22.30;53.60;;;;;;4964635;28;90139;-59
2024/03/27 11:20:23;;;;;;;6.32;2.35;;;22.30;53.60;;;;;;4967822;28;87117;-60
2024/03/27 11:22:53;;;;;;;4.77;2.10;;;22.30;53.60;;;;;;4966343;28;87497;-59
2024/03/27 11:25:27;;;;;;;4.38;2.03;;;22.30;53.50;;;;;;4968404;28;88779;-60
2024/03/27 11:27:53;;;;;;;5.18;2.00;;;22.30;53.80;;;;;;4968603;28;88899;-59
2024/03/27 11:30:28;;;;;;;4.95;2.10;;;22.30;54.00;;;;;;4968603;28;87563;-60
2024/03/27 11:32:55;;;;;;;6.07;2.25;;;22.30;54.10;;;;;;4960906;28;88974;-58
2024/03/27 11:35:23;;;;;;;4.75;1.80;;;22.30;54.00;;;;;;4947732;28;88735;-59
2024/03/27 11:37:48;;;;;;;4.68;1.73;;;22.30;53.70;;;;;;4943104;28;88643;-61
2024/03/27 11:40:16;;;;;;;4.18;1.80;;;22.30;53.70;;;;;;4943354;28;87337;-63
2024/03/27 11:42:41;;;;;;;7.30;3.50;;;22.30;54.40;;;;;;4947219;28;87261;-61
2024/03/27 11:45:10;;;;;;;6.53;3.53;;;22.30;53.70;;;;;;4940939;28;87802;-59
2024/03/27 11:47:38;;;;;;;9.68;4.78;;;22.20;53.80;;;;;;4925033;28;89359;-60
2024/03/27 11:50:04;;;;;;;10.93;5.95;;;22.30;53.90;;;;;;4928658;28;88533;-60
2024/03/27 11:52:30;;;;;;;11.20;5.85;;;22.30;54.10;;;;;;4921040;28;87363;-60
2024/03/27 11:54:57;;;;;;;11.65;6.47;;;22.30;54.10;;;;;;4920742;28;87699;-60
2024/03/27 11:57:23;;;;;;;12.60;6.75;;;22.40;54.60;;;;;;4932422;28;88769;-60
2024/03/27 11:59:51;;;;;;;12.02;5.80;;;22.40;54.60;;;;;;4940351;28;87623;-60
2024/03/27 12:02:17;;;;;;;15.60;6.23;;;22.50;54.60;;;;;;4945201;28;87376;-60
2024/03/27 12:04:43;;;;;;;13.07;6.65;;;22.50;54.40;;;;;;4941678;28;88583;-60
2024/03/27 12:07:09;;;;;;;13.02;6.30;;;22.60;54.00;;;;;;4940898;28;88403;-60
2024/03/27 12:09:39;;;;;;;10.60;5.95;;;22.60;54.00;;;;;;4944805;28;87358;-59
2024/03/27 12:12:05;;;;;;;11.40;6.32;;;22.60;53.50;;;;;;4930114;28;87347;-59
2024/03/27 12:14:32;;;;;;;11.57;6.15;;;22.60;53.80;;;;;;4940898;28;88453;-60
2024/03/27 12:17:12;;;;;;;11.88;5.30;;;22.60;54.20;;;;;;4942270;28;88825;-60
2024/03/27 12:19:37;;;;;;;12.38;6.20;;;22.60;54.50;;;;;;4948830;28;86967;-59
2024/03/27 12:22:05;;;;;;;9.98;5.18;;;22.60;54.60;;;;;;4947392;28;87116;-59
2024/03/27 12:24:32;;;;;;;13.30;5.65;;;22.50;54.50;;;;;;4923585;28;89614;-60
2024/03/27 12:27:03;;;;;;;11.27;5.30;;;22.50;54.40;;;;;;4932562;28;88215;-60
2024/03/27 12:29:30;;;;;;;8.63;5.22;;;22.50;54.00;;;;;;4943264;28;87395;-59
2024/03/27 12:31:55;;;;;;;10.48;4.20;;;22.50;54.20;;;;;;4949342;28;86627;-59
2024/03/27 12:34:21;;;;;;;9.05;4.47;;;22.50;54.40;;;;;;4951409;28;89824;-59
2024/03/27 12:36:48;;;;;;;11.38;5.03;;;22.50;54.20;;;;;;4951111;28;87944;-59
2024/03/27 12:39:14;;;;;;;20.35;5.18;;;22.50;54.40;;;;;;4935397;28;88679;-59
2024/03/27 12:41:41;;;;;;;13.13;5.68;;;22.50;54.30;;;;;;4944324;28;87703;-59
2024/03/27 12:44:07;;;;;;;8.27;4.80;;;22.50;54.60;;;;;;4948710;28;90023;-59
2024/03/27 12:46:32;;;;;;;9.10;4.18;;;22.50;54.60;;;;;;4947114;28;88523;-60
2024/03/27 12:48:58;;;;;;;7.80;4.97;;;22.40;54.60;;;;;;4943763;28;87616;-60
2024/03/27 12:51:24;;;;;;;14.00;5.00;;;22.40;54.80;;;;;;4949178;28;87526;-59
2024/03/27 12:53:49;;;;;;;9.30;4.20;;;22.40;55.00;;;;;;4947350;28;88533;-59